Cobbs Creek, Virginia
Current Conditions -  °F | °C
As of 4:55 AM on Friday 31 Oct 2014 (Local Time) from KW75 Reporting Station
Overcast Overcast  
Wind Chill: 10°   Ceiling: 5500
Heat Index: 10°   Visibility: 10mi
Dew Point:   Wind: 3mph
Humidity: 79%   Direction: 330°NNW
Pressure: 29.99"   Gusts: NA
Location:  37.51°N, 76.4°W
Report Text: KW75 310855Z AUTO 33003KT 10SM OVC055 10/06 A2999 RMK AO1 T00980063
Loading
Personal Weather Stations






























Interactive Weather Map
Tropical Storm Tracking
New forecast layout! Learn more

10-Day Weather Forecast

Advertisements
Track Severe Weather on mobile